createdAt,value
2018-12-14T00:01:02.115Z,12.27
2018-12-14T00:03:30.489Z,12.27
2018-12-14T00:05:58.873Z,15.13
2018-12-14T00:08:27.216Z,15.40
2018-12-14T00:10:55.555Z,13.57
2018-12-14T00:13:24.016Z,10.83
2018-12-14T00:15:52.471Z,12.03
2018-12-14T00:18:20.937Z,11.47
2018-12-14T00:20:49.343Z,11.10
2018-12-14T00:23:17.751Z,12.40
2018-12-14T00:25:46.128Z,14.53
2018-12-14T00:28:14.476Z,10.97
2018-12-14T00:30:42.831Z,11.80
2018-12-14T00:33:11.307Z,11.17
2018-12-14T00:35:40.175Z,11.30
2018-12-14T00:38:08.584Z,9.50
2018-12-14T00:40:37.131Z,10.63
2018-12-14T00:43:05.512Z,10.93
2018-12-14T00:45:34.003Z,9.50
2018-12-14T00:48:09.103Z,10.50
2018-12-14T00:50:37.450Z,12.63
2018-12-14T00:53:05.895Z,13.13
2018-12-14T00:55:34.359Z,13.77
2018-12-14T00:58:02.735Z,12.60
2018-12-14T01:00:31.195Z,11.20
2018-12-14T01:02:59.559Z,10.60
2018-12-14T01:05:27.960Z,10.07
2018-12-14T01:07:56.311Z,9.17
2018-12-14T01:10:24.650Z,10.10
2018-12-14T01:12:53.121Z,10.93
2018-12-14T01:15:21.495Z,14.53
2018-12-14T01:17:49.939Z,11.47
2018-12-14T01:20:18.299Z,9.57
2018-12-14T01:22:47.849Z,11.60
2018-12-14T01:25:16.307Z,12.27
2018-12-14T01:27:44.665Z,12.00
2018-12-14T01:30:13.124Z,11.90
2018-12-14T01:32:41.483Z,11.80
2018-12-14T01:35:09.855Z,16.40
2018-12-14T01:37:38.417Z,13.17
2018-12-14T01:40:07.863Z,10.83
2018-12-14T01:42:36.347Z,15.07
2018-12-14T01:45:05.464Z,13.57
2018-12-14T01:47:34.039Z,15.93
2018-12-14T01:50:02.572Z,13.70
2018-12-14T01:52:31.255Z,14.23
2018-12-14T01:54:59.719Z,13.60
2018-12-14T01:57:28.536Z,12.77
2018-12-14T01:59:56.926Z,9.90
2018-12-14T02:02:25.415Z,12.70
2018-12-14T02:04:53.855Z,14.83
2018-12-14T02:07:22.227Z,12.27
2018-12-14T02:09:50.788Z,13.57
2018-12-14T02:12:19.224Z,14.60
2018-12-14T02:14:47.684Z,12.50
2018-12-14T02:17:16.148Z,12.40
2018-12-14T02:19:44.581Z,16.57
2018-12-14T02:22:12.948Z,13.13
2018-12-14T02:24:41.377Z,13.67
2018-12-14T02:27:09.764Z,12.57
2018-12-14T02:29:38.133Z,16.40
2018-12-14T02:32:06.672Z,17.10
2018-12-14T02:34:35.139Z,15.53
2018-12-14T02:37:03.488Z,13.03
2018-12-14T02:39:31.874Z,15.27
2018-12-14T02:42:00.237Z,13.67
2018-12-14T02:44:28.612Z,13.73
2018-12-14T02:46:56.959Z,15.27
2018-12-14T02:49:25.354Z,14.13
2018-12-14T02:51:53.701Z,14.83
2018-12-14T02:54:22.190Z,15.30
2018-12-14T02:56:50.528Z,14.83
2018-12-14T02:59:18.950Z,16.40
2018-12-14T03:01:47.550Z,18.00
2018-12-14T03:04:15.927Z,18.10
2018-12-14T03:06:44.299Z,17.30
2018-12-14T03:09:12.860Z,17.20
2018-12-14T03:11:41.219Z,18.73
2018-12-14T03:14:09.693Z,16.20
2018-12-14T03:16:38.023Z,16.33
2018-12-14T03:19:06.459Z,18.03
2018-12-14T03:21:34.931Z,18.63
2018-12-14T03:24:03.411Z,18.97
2018-12-14T03:26:31.745Z,18.27
2018-12-14T03:29:00.091Z,19.40
2018-12-14T03:31:28.516Z,18.90
2018-12-14T03:33:56.999Z,18.50
2018-12-14T03:36:25.487Z,21.07
2018-12-14T03:38:53.880Z,14.77
2018-12-14T03:41:22.384Z,17.50
2018-12-14T03:43:50.757Z,18.40
2018-12-14T03:46:19.155Z,20.00
2018-12-14T03:48:47.525Z,17.17
2018-12-14T03:51:17.888Z,19.33
2018-12-14T03:53:46.228Z,20.03
2018-12-14T03:56:14.697Z,19.83
2018-12-14T03:58:43.103Z,15.50
2018-12-14T04:01:11.540Z,17.93
2018-12-14T04:03:39.919Z,17.10
2018-12-14T04:06:08.545Z,18.17
2018-12-14T04:08:36.984Z,16.60
2018-12-14T04:11:05.325Z,16.53
2018-12-14T04:13:33.699Z,15.47
2018-12-14T04:16:02.113Z,13.33
2018-12-14T04:18:30.519Z,19.67
2018-12-14T04:20:58.880Z,15.83
2018-12-14T04:23:27.227Z,15.13
2018-12-14T04:25:55.660Z,16.07
2018-12-14T04:28:24.066Z,14.63
2018-12-14T04:30:52.427Z,17.27
2018-12-14T04:33:21.057Z,18.40
2018-12-14T04:35:49.416Z,15.63
2018-12-14T04:38:17.862Z,20.97
2018-12-14T04:40:46.240Z,15.70
2018-12-14T04:43:14.610Z,20.07
2018-12-14T04:45:42.993Z,18.93
2018-12-14T04:48:11.397Z,15.67
2018-12-14T04:50:39.788Z,17.00
2018-12-14T04:53:08.293Z,19.80
2018-12-14T04:55:36.744Z,21.00
2018-12-14T04:58:05.169Z,19.00
2018-12-14T05:00:33.554Z,18.77
2018-12-14T05:03:01.953Z,21.60
2018-12-14T05:05:30.577Z,23.80
2018-12-14T05:07:58.959Z,22.87
2018-12-14T05:10:27.408Z,23.07
2018-12-14T05:12:56.288Z,20.63
2018-12-14T05:15:24.984Z,29.37
2018-12-14T05:17:53.347Z,23.83
2018-12-14T05:20:21.773Z,25.83
2018-12-14T05:22:50.138Z,22.43
2018-12-14T05:25:18.528Z,26.00
2018-12-14T05:27:46.955Z,19.80
2018-12-14T05:30:15.601Z,21.90
2018-12-14T05:32:44.162Z,24.30
2018-12-14T05:35:12.604Z,20.53
2018-12-14T05:37:41.004Z,23.83
2018-12-14T05:40:09.456Z,22.60
2018-12-14T05:42:37.924Z,20.40
2018-12-14T05:45:07.206Z,24.63
2018-12-14T05:47:35.763Z,22.77
2018-12-14T05:50:04.597Z,19.00
2018-12-14T05:52:32.990Z,22.60
2018-12-14T05:55:01.380Z,21.57
2018-12-14T05:57:29.785Z,22.23
2018-12-14T05:59:58.167Z,21.33
2018-12-14T06:02:26.692Z,19.97
2018-12-14T06:04:55.168Z,23.67
2018-12-14T06:07:23.527Z,19.90
2018-12-14T06:09:51.933Z,19.37
2018-12-14T06:12:20.491Z,18.93
2018-12-14T06:14:48.964Z,20.73
2018-12-14T06:17:17.335Z,19.20
2018-12-14T06:19:45.723Z,21.83
2018-12-14T06:22:14.176Z,17.57
2018-12-14T06:24:42.665Z,19.80
2018-12-14T06:27:11.107Z,23.47
2018-12-14T06:29:39.538Z,14.63
2018-12-14T06:32:07.947Z,18.27
2018-12-14T06:34:36.344Z,20.50
2018-12-14T06:37:05.147Z,24.10
2018-12-14T06:39:33.535Z,20.20
2018-12-14T06:42:02.189Z,19.60
2018-12-14T06:44:30.547Z,18.93
2018-12-14T06:46:58.916Z,16.97
2018-12-14T06:49:27.401Z,20.63
2018-12-14T06:51:55.776Z,23.73
2018-12-14T06:54:24.832Z,18.57
2018-12-14T06:56:53.355Z,19.50
2018-12-14T06:59:21.703Z,17.77
2018-12-14T07:01:50.080Z,21.90
2018-12-14T07:04:18.585Z,20.43
2018-12-14T07:06:47.144Z,18.90
2018-12-14T07:09:15.504Z,20.00
2018-12-14T07:11:43.977Z,18.80
2018-12-14T07:14:12.421Z,17.53
2018-12-14T07:16:40.884Z,18.00
2018-12-14T07:19:09.254Z,19.57
2018-12-14T07:21:37.905Z,16.33
2018-12-14T07:24:06.546Z,15.70
2018-12-14T07:26:35.227Z,15.27
2018-12-14T07:29:03.742Z,16.40
2018-12-14T07:31:32.148Z,19.33
2018-12-14T07:34:00.526Z,19.20
2018-12-14T07:36:28.908Z,15.60
2018-12-14T07:38:57.335Z,18.90
2018-12-14T07:41:27.707Z,15.33
2018-12-14T07:43:56.470Z,18.43
2018-12-14T07:46:24.884Z,18.93
2018-12-14T07:48:53.227Z,16.03
2018-12-14T07:51:21.636Z,15.47
2018-12-14T07:53:50.277Z,16.27
2018-12-14T07:56:18.669Z,14.47
2018-12-14T07:58:47.132Z,15.43
2018-12-14T08:01:15.545Z,19.73
2018-12-14T08:03:44.091Z,16.40
2018-12-14T08:06:12.581Z,17.87
2018-12-14T08:08:41.148Z,23.77
2018-12-14T08:11:09.487Z,20.23
2018-12-14T08:13:37.868Z,17.07
2018-12-14T08:16:06.220Z,19.67
2018-12-14T08:18:34.703Z,17.77
2018-12-14T08:21:03.206Z,18.70
2018-12-14T08:23:31.634Z,15.53
2018-12-14T08:26:00.047Z,17.30
2018-12-14T08:28:28.458Z,20.17
2018-12-14T08:30:56.836Z,18.93
2018-12-14T08:33:25.302Z,17.47
2018-12-14T08:35:53.736Z,17.33
2018-12-14T08:38:22.122Z,20.57
2018-12-14T08:40:50.560Z,17.77
2018-12-14T08:43:19.036Z,17.33
2018-12-14T08:45:47.484Z,19.03
2018-12-14T08:48:16.144Z,17.80
2018-12-14T08:50:44.509Z,17.23
2018-12-14T08:53:13.089Z,17.90
2018-12-14T08:55:41.543Z,21.10
2018-12-14T08:58:09.979Z,16.50
2018-12-14T09:00:38.304Z,22.17
2018-12-14T09:03:06.728Z,21.00
2018-12-14T09:05:35.143Z,15.67
2018-12-14T09:08:03.532Z,15.43
2018-12-14T09:10:31.903Z,16.87
2018-12-14T09:13:00.344Z,13.77
2018-12-14T09:15:28.740Z,16.37
2018-12-14T09:17:57.198Z,15.43
2018-12-14T09:20:26.692Z,15.83
2018-12-14T09:22:55.293Z,15.83
2018-12-14T09:25:23.777Z,14.13
2018-12-14T09:27:52.432Z,11.70
2018-12-14T09:30:20.885Z,16.40
2018-12-14T09:32:49.267Z,17.83
2018-12-14T09:35:17.765Z,13.53
2018-12-14T09:37:46.152Z,15.63
2018-12-14T09:40:14.509Z,13.93
2018-12-14T09:42:42.921Z,14.37
2018-12-14T09:45:11.336Z,14.80
2018-12-14T09:47:39.815Z,14.27
2018-12-14T09:50:08.308Z,15.27
2018-12-14T09:52:36.704Z,12.13
2018-12-14T09:55:05.320Z,12.73
2018-12-14T09:57:33.828Z,13.17
2018-12-14T10:00:02.500Z,11.63
2018-12-14T10:02:30.859Z,11.77
2018-12-14T10:04:59.305Z,12.47
2018-12-14T10:07:27.728Z,12.53
2018-12-14T10:09:56.187Z,12.80
2018-12-14T10:12:24.601Z,10.77
2018-12-14T10:14:53.059Z,9.27
2018-12-14T10:17:21.653Z,10.53
2018-12-14T10:19:50.184Z,10.77
2018-12-14T10:22:18.632Z,9.93
2018-12-14T10:24:46.996Z,10.63
2018-12-14T10:27:15.338Z,13.10
2018-12-14T10:29:43.733Z,11.53
2018-12-14T10:32:12.191Z,11.37
2018-12-14T10:34:40.588Z,14.63
2018-12-14T10:37:09.018Z,11.50
2018-12-14T10:39:37.410Z,10.97
2018-12-14T10:42:05.807Z,12.00
2018-12-14T10:44:34.300Z,11.67
2018-12-14T10:47:02.868Z,11.53
2018-12-14T10:49:31.485Z,13.17
2018-12-14T10:51:59.852Z,12.40
2018-12-14T10:54:28.236Z,12.97
2018-12-14T10:56:56.628Z,12.37
2018-12-14T10:59:25.034Z,12.07
2018-12-14T11:01:57.043Z,11.07
2018-12-14T11:04:26.549Z,11.40
2018-12-14T11:06:54.954Z,11.97
2018-12-14T11:09:23.596Z,10.50
2018-12-14T11:11:51.972Z,13.53
2018-12-14T11:14:20.543Z,13.23
2018-12-14T11:16:48.937Z,13.20
2018-12-14T11:19:17.694Z,14.17
2018-12-14T11:21:46.114Z,13.30
2018-12-14T11:24:14.632Z,13.70
2018-12-14T11:26:43.121Z,13.90
2018-12-14T11:29:11.486Z,12.60
2018-12-14T11:31:39.872Z,12.97
2018-12-14T11:34:08.342Z,15.43
2018-12-14T11:36:36.747Z,15.60
2018-12-14T11:39:07.569Z,15.07
2018-12-14T11:41:36.043Z,14.53
2018-12-14T11:44:04.479Z,15.70
2018-12-14T11:46:32.945Z,12.37
2018-12-14T11:49:01.391Z,13.43
2018-12-14T11:51:30.019Z,14.70
2018-12-14T11:53:58.480Z,17.00
2018-12-14T11:56:26.957Z,14.43
2018-12-14T11:58:55.340Z,14.87
2018-12-14T12:01:23.870Z,14.27
2018-12-14T12:03:52.223Z,14.17
2018-12-14T12:06:20.660Z,14.17
2018-12-14T12:08:49.147Z,13.67
2018-12-14T12:11:17.562Z,13.43
2018-12-14T12:13:46.031Z,13.00
2018-12-14T12:16:14.412Z,16.10
2018-12-14T12:18:42.791Z,15.43
2018-12-14T12:21:11.209Z,13.63
2018-12-14T12:23:39.608Z,13.93
2018-12-14T12:26:07.998Z,14.47
2018-12-14T12:28:36.392Z,16.83
2018-12-14T12:31:04.753Z,15.73
2018-12-14T12:33:33.204Z,14.27
2018-12-14T12:36:01.625Z,13.97
2018-12-14T12:38:30.037Z,16.20
2018-12-14T12:40:58.461Z,16.70
2018-12-14T12:43:26.851Z,14.60
2018-12-14T12:45:55.282Z,14.60
2018-12-14T12:48:23.737Z,14.63
2018-12-14T12:50:52.091Z,16.13
2018-12-14T12:53:20.486Z,15.63
2018-12-14T12:55:48.848Z,18.40
2018-12-14T12:58:17.199Z,16.37
2018-12-14T13:00:45.619Z,18.10
2018-12-14T13:03:14.037Z,15.50
2018-12-14T13:05:42.498Z,16.40
2018-12-14T13:08:10.839Z,17.53
2018-12-14T13:10:39.255Z,17.13
2018-12-14T13:13:07.644Z,19.13
2018-12-14T13:15:36.126Z,16.27
2018-12-14T13:18:05.657Z,18.13
2018-12-14T13:20:34.292Z,18.13
2018-12-14T13:23:02.709Z,17.60
2018-12-14T13:25:31.053Z,16.13
2018-12-14T13:27:59.699Z,17.27
2018-12-14T13:30:28.148Z,15.40
2018-12-14T13:32:56.551Z,14.97
2018-12-14T13:35:25.254Z,15.27
2018-12-14T13:37:53.716Z,22.97
2018-12-14T13:40:22.124Z,16.27
2018-12-14T13:42:50.651Z,15.87
2018-12-14T13:45:19.131Z,15.47
2018-12-14T13:47:47.609Z,15.43
2018-12-14T13:50:16.067Z,13.00
2018-12-14T13:52:44.572Z,15.50
2018-12-14T13:55:12.924Z,14.70
2018-12-14T13:57:41.320Z,14.20
2018-12-14T14:00:10.007Z,12.50
2018-12-14T14:02:38.500Z,14.57
2018-12-14T14:05:06.860Z,14.80
2018-12-14T14:07:35.266Z,15.03
2018-12-14T14:10:04.223Z,14.97
2018-12-14T14:12:32.671Z,14.73
2018-12-14T14:15:01.171Z,14.00
2018-12-14T14:17:29.573Z,15.37
2018-12-14T14:19:58.039Z,16.33
2018-12-14T14:22:26.562Z,15.37
2018-12-14T14:24:54.938Z,12.27
2018-12-14T14:27:23.561Z,15.10
2018-12-14T14:29:52.203Z,13.97
2018-12-14T14:32:20.584Z,14.10
2018-12-14T14:34:49.140Z,14.70
2018-12-14T14:37:17.644Z,13.93
2018-12-14T14:39:46.072Z,12.97
2018-12-14T14:42:14.572Z,13.27
2018-12-14T14:44:43.338Z,13.70
2018-12-14T14:47:11.766Z,14.77
2018-12-14T14:49:40.156Z,13.03
2018-12-14T14:52:08.588Z,13.80
2018-12-14T14:54:39.895Z,12.50
2018-12-14T14:57:07.359Z,15.40
2018-12-14T14:59:35.748Z,12.87
2018-12-14T15:02:04.124Z,12.90
2018-12-14T15:04:32.524Z,16.60
2018-12-14T15:07:00.983Z,15.80
2018-12-14T15:09:29.392Z,18.33
2018-12-14T15:11:57.794Z,16.30
2018-12-14T15:14:26.188Z,16.93
2018-12-14T15:16:54.564Z,15.97
2018-12-14T15:19:23.058Z,14.77
2018-12-14T15:21:51.561Z,15.13
2018-12-14T15:24:20.000Z,18.00
2018-12-14T15:26:48.559Z,17.63
2018-12-14T15:29:16.957Z,15.90
2018-12-14T15:31:46.134Z,17.43
2018-12-14T15:34:14.712Z,16.77
2018-12-14T15:36:43.299Z,16.70
2018-12-14T15:39:11.749Z,15.63
2018-12-14T15:41:40.129Z,17.77
2018-12-14T15:44:08.603Z,17.53
2018-12-14T15:46:37.091Z,19.60
2018-12-14T15:49:05.447Z,16.43
2018-12-14T15:51:34.964Z,17.47
2018-12-14T15:54:03.517Z,16.30
2018-12-14T15:56:31.897Z,17.60
2018-12-14T15:59:00.413Z,19.03
2018-12-14T16:01:28.960Z,17.53
2018-12-14T16:03:57.332Z,18.03
2018-12-14T16:06:25.835Z,17.43
2018-12-14T16:08:54.251Z,22.07
2018-12-14T16:11:22.651Z,17.70
2018-12-14T16:13:51.192Z,24.90
2018-12-14T16:16:19.585Z,24.27
2018-12-14T16:18:47.952Z,21.00
2018-12-14T16:21:16.531Z,22.10
2018-12-14T16:23:45.054Z,20.93
2018-12-14T16:26:13.586Z,20.17
2018-12-14T16:28:42.316Z,18.07
2018-12-14T16:31:10.785Z,19.90
2018-12-14T16:33:40.364Z,22.07
2018-12-14T16:36:09.824Z,20.27
2018-12-14T16:38:39.384Z,20.60
2018-12-14T16:41:08.347Z,19.83
2018-12-14T16:43:37.508Z,20.80
2018-12-14T16:46:06.541Z,25.70
2018-12-14T16:48:35.899Z,21.43
2018-12-14T16:51:05.374Z,20.80
2018-12-14T16:53:38.065Z,23.43
2018-12-14T16:56:06.616Z,18.80
2018-12-14T16:58:35.104Z,17.70
2018-12-14T17:01:03.466Z,22.20
2018-12-14T17:03:31.887Z,22.10
2018-12-14T17:06:00.275Z,22.20
2018-12-14T17:08:28.700Z,23.00
2018-12-14T17:10:57.121Z,20.60
2018-12-14T17:13:25.504Z,22.97
2018-12-14T17:15:53.901Z,22.57
2018-12-14T17:18:22.324Z,21.80
2018-12-14T17:20:50.769Z,19.37
2018-12-14T17:23:19.166Z,23.13
2018-12-14T17:25:47.524Z,23.63
2018-12-14T17:28:15.884Z,27.37
2018-12-14T17:30:44.285Z,22.67
2018-12-14T17:33:13.417Z,24.80
2018-12-14T17:35:41.912Z,22.60
2018-12-14T17:38:10.279Z,21.30
2018-12-14T17:40:38.620Z,25.27
2018-12-14T17:43:07.168Z,24.10
2018-12-14T17:45:39.777Z,24.93
2018-12-14T17:48:05.912Z,26.77
2018-12-14T17:50:34.347Z,23.43
2018-12-14T17:53:02.772Z,25.97
2018-12-14T17:55:31.211Z,27.20
2018-12-14T17:57:59.648Z,27.13
2018-12-14T18:00:27.995Z,25.67
2018-12-14T18:02:56.421Z,27.83
2018-12-14T18:05:28.357Z,29.73
2018-12-14T18:07:58.158Z,24.30
2018-12-14T18:10:26.678Z,29.43
2018-12-14T18:12:55.129Z,26.10
2018-12-14T18:15:23.565Z,25.90
2018-12-14T18:17:52.000Z,25.53
2018-12-14T18:20:21.256Z,25.37
2018-12-14T18:22:49.811Z,21.93
2018-12-14T18:25:18.697Z,24.23
2018-12-14T18:27:47.109Z,26.10
2018-12-14T18:30:15.623Z,27.30
2018-12-14T18:32:44.094Z,24.60
2018-12-14T18:35:12.456Z,27.60
2018-12-14T18:37:40.819Z,28.20
2018-12-14T18:40:09.804Z,25.30
2018-12-14T18:42:38.156Z,26.93
2018-12-14T18:45:07.312Z,27.37
2018-12-14T18:47:35.654Z,27.27
2018-12-14T18:50:04.719Z,26.87
2018-12-14T18:52:33.152Z,24.73
2018-12-14T18:55:01.505Z,30.17
2018-12-14T18:57:30.027Z,27.00
2018-12-14T18:59:58.451Z,28.07
2018-12-14T19:02:26.948Z,30.77
2018-12-14T19:04:55.297Z,27.63
2018-12-14T19:07:23.679Z,27.57
2018-12-14T19:09:52.505Z,29.70
2018-12-14T19:12:21.695Z,26.83
2018-12-14T19:14:50.215Z,30.80
2018-12-14T19:17:18.606Z,34.40
2018-12-14T19:19:46.957Z,30.00
2018-12-14T19:22:15.392Z,30.97
2018-12-14T19:24:43.850Z,31.73
2018-12-14T19:27:12.361Z,36.90
2018-12-14T19:29:40.988Z,33.73
2018-12-14T19:32:09.345Z,35.50
2018-12-14T19:34:37.799Z,36.03
2018-12-14T19:37:06.157Z,40.70
2018-12-14T19:39:34.591Z,37.50
2018-12-14T19:42:03.055Z,38.97
2018-12-14T19:44:31.759Z,39.30
2018-12-14T19:47:00.113Z,38.97
2018-12-14T19:49:29.173Z,46.33
2018-12-14T19:51:57.828Z,39.97
2018-12-14T19:54:26.501Z,39.97
2018-12-14T19:56:55.175Z,42.13
2018-12-14T19:59:23.550Z,45.30
2018-12-14T20:01:51.949Z,49.30
2018-12-14T20:04:20.300Z,43.93
2018-12-14T20:06:48.688Z,43.10
2018-12-14T20:09:17.039Z,48.57
2018-12-14T20:11:45.420Z,45.73
2018-12-14T20:14:13.816Z,42.60
2018-12-14T20:16:42.272Z,41.07
2018-12-14T20:19:10.644Z,46.97
2018-12-14T20:21:39.072Z,41.80
2018-12-14T20:24:07.531Z,39.40
2018-12-14T20:26:35.875Z,40.80
2018-12-14T20:29:04.245Z,40.70
2018-12-14T20:31:32.697Z,43.13
2018-12-14T20:34:01.187Z,45.57
2018-12-14T20:36:29.580Z,41.23
2018-12-14T20:38:57.944Z,42.77
2018-12-14T20:41:26.318Z,42.27
2018-12-14T20:43:54.758Z,46.30
2018-12-14T20:46:23.132Z,43.70
2018-12-14T20:48:51.500Z,44.67
2018-12-14T20:51:19.867Z,41.43
2018-12-14T20:53:50.279Z,41.77
2018-12-14T20:56:18.769Z,42.43
2018-12-14T20:58:47.147Z,42.47
2018-12-14T21:01:15.540Z,42.00
2018-12-14T21:03:43.892Z,44.20
2018-12-14T21:06:12.339Z,43.70
2018-12-14T21:08:40.704Z,44.93
2018-12-14T21:11:09.195Z,46.57
2018-12-14T21:13:37.596Z,45.77
2018-12-14T21:16:06.008Z,45.67
2018-12-14T21:18:34.385Z,46.90
2018-12-14T21:21:02.785Z,43.50
2018-12-14T21:23:31.193Z,44.67
2018-12-14T21:25:59.551Z,44.47
2018-12-14T21:28:27.909Z,43.67
2018-12-14T21:30:56.267Z,44.80
2018-12-14T21:33:24.680Z,42.87
2018-12-14T21:35:53.034Z,48.00
2018-12-14T21:38:21.602Z,40.67
2018-12-14T21:40:50.007Z,40.97
2018-12-14T21:43:18.429Z,40.53
2018-12-14T21:45:46.787Z,45.90
2018-12-14T21:48:15.245Z,41.40
2018-12-14T21:50:43.668Z,37.90
2018-12-14T21:53:14.556Z,41.70
2018-12-14T21:55:42.620Z,42.80
2018-12-14T21:58:11.239Z,39.73
2018-12-14T22:00:39.620Z,44.23
2018-12-14T22:03:08.032Z,37.57
2018-12-14T22:05:36.444Z,43.67
2018-12-14T22:08:04.848Z,37.67
2018-12-14T22:10:33.280Z,37.70
2018-12-14T22:13:01.627Z,40.23
2018-12-14T22:15:30.155Z,41.70
2018-12-14T22:17:58.627Z,37.03
2018-12-14T22:20:26.979Z,39.80
2018-12-14T22:22:55.338Z,37.03
2018-12-14T22:25:23.699Z,36.67
2018-12-14T22:27:52.299Z,41.37
2018-12-14T22:30:20.740Z,40.67
2018-12-14T22:32:49.104Z,38.13
2018-12-14T22:35:17.578Z,35.43
2018-12-14T22:37:45.952Z,37.07
2018-12-14T22:40:14.327Z,36.13
2018-12-14T22:42:42.768Z,36.50
2018-12-14T22:45:11.249Z,35.57
2018-12-14T22:47:39.629Z,37.30
2018-12-14T22:50:08.152Z,35.53
2018-12-14T22:52:36.552Z,38.27
2018-12-14T22:55:05.247Z,38.63
2018-12-14T22:57:33.611Z,38.43
2018-12-14T23:00:01.959Z,33.87
2018-12-14T23:02:30.391Z,36.70
2018-12-14T23:04:58.864Z,34.30
2018-12-14T23:07:27.240Z,34.93
2018-12-14T23:09:55.612Z,35.63
2018-12-14T23:12:24.115Z,35.50
2018-12-14T23:14:52.523Z,35.40
2018-12-14T23:17:20.905Z,34.97
2018-12-14T23:19:49.308Z,40.33
2018-12-14T23:22:17.744Z,32.67
2018-12-14T23:24:46.116Z,35.73
2018-12-14T23:27:14.482Z,35.23
2018-12-14T23:29:42.880Z,33.63
2018-12-14T23:32:11.300Z,32.90
2018-12-14T23:34:40.395Z,30.73
2018-12-14T23:37:13.878Z,34.70
2018-12-14T23:39:39.175Z,32.53
2018-12-14T23:42:07.580Z,30.47
2018-12-14T23:44:36.003Z,28.50
2018-12-14T23:47:06.472Z,28.80
2018-12-14T23:49:34.845Z,32.33
2018-12-14T23:52:03.224Z,27.77
2018-12-14T23:54:31.627Z,29.60
2018-12-14T23:56:59.968Z,30.73
2018-12-14T23:59:28.416Z,31.17
